Terminal Aerodrome Forecast
Issued by NWS

Home | Current Version | Previous Version | Graphics & Text | Print | Product List | Glossary On
Versions: 1 2 3 4 5 6 7 8 9 10 11 12 13 14 15 16 17 18 19 20 21 22 23 24 25 26 27 28 29
000
FTUS43 KICT 191700
TAFCNU
TAF
KCNU 191739Z 1918/2018 17007KT 5SM BR OVC005
      TEMPO 1918/1920 P6SM NSW BKN007
     FM192000 18007KT P6SM BKN015
     FM192100 18007KT P6SM BKN035
     FM200000 17007KT P6SM SCT040
     FM200700 17005KT 4SM BR SCT250
     FM201200 18005KT 4SM BR OVC015=

USA.gov is the U.S. government's official web portal to all federal, state and local government web resources and services.